createdAt,value
2022-11-01T00:02:00.624Z,1.77
2022-11-01T00:04:28.781Z,1.43
2022-11-01T00:06:59.252Z,1.70
2022-11-01T00:09:27.360Z,1.97
2022-11-01T00:11:55.425Z,1.90
2022-11-01T00:14:23.583Z,1.77
2022-11-01T00:16:51.874Z,2.20
2022-11-01T00:19:20.007Z,2.13
2022-11-01T00:21:48.031Z,1.30
2022-11-01T00:24:17.461Z,2.07
2022-11-01T00:26:45.720Z,1.60
2022-11-01T00:29:14.057Z,1.90
2022-11-01T00:31:42.149Z,1.80
2022-11-01T00:34:10.553Z,1.97
2022-11-01T00:36:38.685Z,2.33
2022-11-01T00:39:07.075Z,2.07
2022-11-01T00:41:36.720Z,2.70
2022-11-01T00:44:04.899Z,3.83
2022-11-01T00:46:33.232Z,3.40
2022-11-01T00:49:01.761Z,3.00
2022-11-01T00:51:30.202Z,3.87
2022-11-01T00:53:58.188Z,3.60
2022-11-01T00:56:26.602Z,2.53
2022-11-01T00:59:00.762Z,1.90
2022-11-01T01:01:29.179Z,3.30
2022-11-01T01:03:57.373Z,2.97
2022-11-01T01:06:25.547Z,2.53
2022-11-01T01:08:53.544Z,2.30
2022-11-01T01:11:21.564Z,2.70
2022-11-01T01:13:49.632Z,2.80
2022-11-01T01:16:19.118Z,1.97
2022-11-01T01:18:47.211Z,2.23
2022-11-01T01:21:15.647Z,2.93
2022-11-01T01:23:44.444Z,2.00
2022-11-01T01:26:12.974Z,2.53
2022-11-01T01:28:44.577Z,2.67
2022-11-01T01:31:13.811Z,2.80
2022-11-01T01:33:43.407Z,1.97
2022-11-01T01:36:11.719Z,2.10
2022-11-01T01:38:39.828Z,1.50
2022-11-01T01:41:24.996Z,2.07
2022-11-01T01:43:53.031Z,2.30
2022-11-01T01:46:21.176Z,2.30
2022-11-01T01:48:54.465Z,2.13
2022-11-01T01:51:27.411Z,1.77
2022-11-01T01:54:05.333Z,2.60
2022-11-01T01:56:37.727Z,2.50
2022-11-01T01:59:07.672Z,2.10
2022-11-01T02:01:39.656Z,2.27
2022-11-01T02:04:13.621Z,2.10
2022-11-01T02:06:48.243Z,2.10
2022-11-01T02:09:22.531Z,2.00
2022-11-01T02:11:51.693Z,2.07
2022-11-01T02:14:22.390Z,2.67
2022-11-01T02:16:56.598Z,2.30
2022-11-01T02:19:50.166Z,2.27
2022-11-01T02:22:54.388Z,1.57
2022-11-01T02:25:37.939Z,1.67
2022-11-01T02:28:27.262Z,1.63
2022-11-01T02:31:11.160Z,0.93
2022-11-01T02:33:44.094Z,1.80
2022-11-01T02:36:17.855Z,2.40
2022-11-01T02:38:51.247Z,2.40
2022-11-01T02:41:24.506Z,2.50
2022-11-01T02:43:56.162Z,1.43
2022-11-01T02:46:47.312Z,2.10
2022-11-01T02:49:18.663Z,3.10
2022-11-01T02:51:48.120Z,3.00
2022-11-01T02:54:22.162Z,4.60
2022-11-01T02:56:58.118Z,3.43
2022-11-01T02:59:53.870Z,2.87
2022-11-01T03:06:37.104Z,2.10
2022-11-01T03:09:08.312Z,2.50
2022-11-01T03:11:46.295Z,1.60
2022-11-01T03:14:23.464Z,2.23
2022-11-01T03:16:55.866Z,1.63
2022-11-01T03:19:35.899Z,2.63
2022-11-01T03:22:11.154Z,2.87
2022-11-01T03:24:46.227Z,2.63
2022-11-01T03:27:23.705Z,3.10
2022-11-01T03:29:59.324Z,4.27
2022-11-01T03:32:33.846Z,3.00
2022-11-01T03:35:26.515Z,2.97
2022-11-01T03:38:26.512Z,2.70
2022-11-01T03:41:12.897Z,3.23
2022-11-01T03:43:44.535Z,2.37
2022-11-01T03:46:16.299Z,2.80
2022-11-01T03:48:44.452Z,2.87
2022-11-01T03:51:12.836Z,3.00
2022-11-01T03:53:42.747Z,3.00
2022-11-01T03:56:11.331Z,3.00
2022-11-01T03:58:46.208Z,3.60
2022-11-01T04:01:16.944Z,3.40
2022-11-01T04:03:45.886Z,3.50
2022-11-01T04:06:14.023Z,3.30
2022-11-01T04:08:45.031Z,2.90
2022-11-01T04:11:13.148Z,3.80
2022-11-01T04:13:41.363Z,3.40
2022-11-01T04:16:27.764Z,4.10
2022-11-01T04:19:13.574Z,2.80
2022-11-01T04:21:42.362Z,3.20
2022-11-01T04:24:11.754Z,4.33
2022-11-01T04:26:39.771Z,3.10
2022-11-01T04:29:07.868Z,3.30
2022-11-01T04:31:39.987Z,3.57
2022-11-01T04:34:08.323Z,4.30
2022-11-01T04:36:38.140Z,3.23
2022-11-01T04:39:10.224Z,3.83
2022-11-01T04:41:39.841Z,3.90
2022-11-01T04:44:07.975Z,4.07
2022-11-01T04:46:36.065Z,2.90
2022-11-01T04:49:04.069Z,2.93
2022-11-01T04:51:35.465Z,3.10
2022-11-01T04:54:06.438Z,3.23
2022-11-01T04:56:37.520Z,2.30
2022-11-01T04:59:07.352Z,3.47
2022-11-01T05:01:35.702Z,3.40
2022-11-01T05:04:03.945Z,3.20
2022-11-01T05:06:32.146Z,2.70
2022-11-01T05:09:00.293Z,3.60
2022-11-01T05:11:28.351Z,3.30
2022-11-01T05:13:58.264Z,3.60
2022-11-01T05:16:27.784Z,2.90
2022-11-01T05:18:55.921Z,3.60
2022-11-01T05:21:24.022Z,3.90
2022-11-01T05:23:52.119Z,3.00
2022-11-01T05:26:20.138Z,3.30
2022-11-01T05:28:48.181Z,2.90
2022-11-01T05:31:16.234Z,3.17
2022-11-01T05:33:45.713Z,3.70
2022-11-01T05:36:13.837Z,2.77
2022-11-01T05:38:41.898Z,3.20
2022-11-01T05:41:10.055Z,2.20
2022-11-01T05:43:38.184Z,2.63
2022-11-01T05:46:06.608Z,3.10
2022-11-01T05:48:35.208Z,3.17
2022-11-01T05:51:04.723Z,3.27
2022-11-01T05:53:33.740Z,2.67
2022-11-01T05:56:01.918Z,3.37
2022-11-01T05:58:30.916Z,3.10
2022-11-01T06:00:59.640Z,2.60
2022-11-01T06:03:27.850Z,3.47
2022-11-01T06:05:55.951Z,3.77
2022-11-01T06:08:25.881Z,3.20
2022-11-01T06:10:54.618Z,3.87
2022-11-01T06:13:22.784Z,3.47
2022-11-01T06:15:50.815Z,3.37
2022-11-01T06:18:19.430Z,2.73
2022-11-01T06:20:47.678Z,2.63
2022-11-01T06:23:16.486Z,3.13
2022-11-01T06:25:46.387Z,3.10
2022-11-01T06:28:14.693Z,3.10
2022-11-01T06:30:44.064Z,2.90
2022-11-01T06:33:12.205Z,3.00
2022-11-01T06:35:40.241Z,3.47
2022-11-01T06:38:10.271Z,3.30
2022-11-01T06:40:39.830Z,3.23
2022-11-01T06:43:10.203Z,2.97
2022-11-01T06:45:38.289Z,3.30
2022-11-01T06:48:09.406Z,2.70
2022-11-01T06:50:37.626Z,2.97
2022-11-01T06:53:08.772Z,2.97
2022-11-01T06:55:37.394Z,2.70
2022-11-01T06:58:05.471Z,2.97
2022-11-01T07:00:35.260Z,3.07
2022-11-01T07:03:05.388Z,3.00
2022-11-01T07:05:37.156Z,2.67
2022-11-01T07:08:08.088Z,2.63
2022-11-01T07:10:37.736Z,2.90
2022-11-01T07:13:07.608Z,3.30
2022-11-01T07:15:37.137Z,2.50
2022-11-01T07:18:08.200Z,2.83
2022-11-01T07:20:41.965Z,3.37
2022-11-01T07:23:15.649Z,2.80
2022-11-01T07:25:44.321Z,3.10
2022-11-01T07:28:12.613Z,3.47
2022-11-01T07:30:42.076Z,3.23
2022-11-01T07:33:10.633Z,3.60
2022-11-01T07:35:38.920Z,3.57
2022-11-01T07:38:09.884Z,5.13
2022-11-01T07:40:41.275Z,3.90
2022-11-01T07:43:09.499Z,3.63
2022-11-01T07:45:38.167Z,3.27
2022-11-01T07:48:10.371Z,2.43
2022-11-01T07:50:39.855Z,3.60
2022-11-01T07:53:09.633Z,4.20
2022-11-01T07:55:38.485Z,2.80
2022-11-01T07:58:06.984Z,2.50
2022-11-01T08:03:04.211Z,3.50
2022-11-01T08:05:34.625Z,2.83
2022-11-01T08:08:03.303Z,2.77
2022-11-01T08:10:31.723Z,3.90
2022-11-01T08:13:04.083Z,2.87
2022-11-01T08:15:32.232Z,2.90
2022-11-01T08:18:01.409Z,2.70
2022-11-01T08:20:30.048Z,2.87
2022-11-01T08:22:59.762Z,2.70
2022-11-01T08:25:27.950Z,3.53
2022-11-01T08:27:55.938Z,2.90
2022-11-01T08:30:24.286Z,2.17
2022-11-01T08:32:59.026Z,2.27
2022-11-01T08:35:27.239Z,4.43
2022-11-01T08:37:55.799Z,3.37
2022-11-01T08:40:25.565Z,3.10
2022-11-01T08:42:53.642Z,6.20
2022-11-01T08:45:22.247Z,3.73
2022-11-01T08:47:50.420Z,3.60
2022-11-01T08:50:19.170Z,3.27
2022-11-01T08:52:47.169Z,3.27
2022-11-01T08:55:15.229Z,4.30
2022-11-01T08:57:44.909Z,3.63
2022-11-01T09:00:14.470Z,4.10
2022-11-01T09:02:42.471Z,3.33
2022-11-01T09:05:10.658Z,3.30
2022-11-01T09:07:39.577Z,3.30
2022-11-01T09:10:09.337Z,2.83
2022-11-01T09:12:38.028Z,2.33
2022-11-01T09:15:08.252Z,2.50
2022-11-01T09:17:36.590Z,2.30
2022-11-01T09:20:05.160Z,1.93
2022-11-01T09:22:33.229Z,2.50
2022-11-01T09:25:01.367Z,2.43
2022-11-01T09:27:29.397Z,2.00
2022-11-01T09:29:59.925Z,2.07
2022-11-01T09:32:30.606Z,2.23
2022-11-01T09:34:58.766Z,2.60
2022-11-01T09:37:26.783Z,2.87
2022-11-01T09:39:54.892Z,2.03
2022-11-01T09:42:28.440Z,3.00
2022-11-01T09:44:59.978Z,1.90
2022-11-01T09:47:33.758Z,2.73
2022-11-01T09:50:07.292Z,2.53
2022-11-01T09:52:38.407Z,2.33
2022-11-01T09:55:14.398Z,2.20
2022-11-01T09:57:47.081Z,2.17
2022-11-01T10:00:18.186Z,1.90
2022-11-01T10:03:20.115Z,2.07
2022-11-01T10:05:54.776Z,3.70
2022-11-01T10:08:44.289Z,1.80
2022-11-01T10:11:42.276Z,1.60
2022-11-01T10:14:24.316Z,1.73
2022-11-01T10:17:00.047Z,1.73
2022-11-01T10:19:33.302Z,1.47
2022-11-01T10:22:07.091Z,1.80
2022-11-01T10:24:40.269Z,1.63
2022-11-01T10:27:19.042Z,2.57
2022-11-01T10:29:55.521Z,1.60
2022-11-01T10:32:31.986Z,1.80
2022-11-01T10:35:06.221Z,1.90
2022-11-01T10:37:47.543Z,1.93
2022-11-01T10:40:31.231Z,1.57
2022-11-01T10:43:00.065Z,2.30
2022-11-01T10:45:28.449Z,1.97
2022-11-01T10:47:59.453Z,1.73
2022-11-01T10:50:31.057Z,2.17
2022-11-01T10:53:01.808Z,2.83
2022-11-01T10:55:33.469Z,1.63
2022-11-01T10:58:05.636Z,2.07
2022-11-01T11:00:38.082Z,1.30
2022-11-01T11:03:21.993Z,2.40
2022-11-01T11:05:53.148Z,1.50
2022-11-01T11:08:25.685Z,1.50
2022-11-01T11:10:57.137Z,1.50
2022-11-01T11:13:27.665Z,1.33
2022-11-01T11:16:00.484Z,1.23
2022-11-01T11:18:32.256Z,2.20
2022-11-01T11:21:04.739Z,1.60
2022-11-01T11:23:34.664Z,1.70
2022-11-01T11:26:03.786Z,2.30
2022-11-01T11:28:34.496Z,1.80
2022-11-01T11:31:15.061Z,1.70
2022-11-01T11:33:51.039Z,1.53
2022-11-01T11:36:27.934Z,2.03
2022-11-01T11:38:57.100Z,1.90
2022-11-01T11:41:30.370Z,2.00
2022-11-01T11:43:58.557Z,1.63
2022-11-01T11:46:26.970Z,1.70
2022-11-01T11:48:58.231Z,1.83
2022-11-01T11:51:29.726Z,1.30
2022-11-01T11:54:19.923Z,1.33
2022-11-01T11:56:48.807Z,1.67
2022-11-01T11:59:26.089Z,1.27
2022-11-01T12:02:00.187Z,1.60
2022-11-01T12:04:33.039Z,2.33
2022-11-01T12:07:02.643Z,2.10
2022-11-01T12:09:37.371Z,2.63
2022-11-01T12:12:16.604Z,1.17
2022-11-01T12:14:44.822Z,1.30
2022-11-01T12:17:34.640Z,1.80
2022-11-01T12:20:14.836Z,2.40
2022-11-01T12:22:51.404Z,1.73
2022-11-01T12:25:23.135Z,1.90
2022-11-01T12:27:58.804Z,1.60
2022-11-01T12:30:28.999Z,2.00
2022-11-01T12:32:59.225Z,1.53
2022-11-01T12:35:33.559Z,2.77
2022-11-01T12:38:34.658Z,1.37
2022-11-01T12:41:14.197Z,2.03
2022-11-01T12:43:59.551Z,1.77
2022-11-01T12:46:35.642Z,1.87
2022-11-01T12:49:08.644Z,1.93
2022-11-01T12:51:41.262Z,1.60
2022-11-01T12:54:15.949Z,1.57
2022-11-01T12:56:44.284Z,1.53
2022-11-01T12:59:14.881Z,2.10
2022-11-01T13:01:52.777Z,1.90
2022-11-01T13:04:31.644Z,1.70
2022-11-01T13:07:12.674Z,2.03
2022-11-01T13:09:54.649Z,1.73
2022-11-01T13:12:32.197Z,1.90
2022-11-01T13:15:09.866Z,2.37
2022-11-01T13:17:45.722Z,1.53
2022-11-01T13:20:32.579Z,1.60
2022-11-01T13:23:21.059Z,2.20
2022-11-01T13:25:56.558Z,1.53
2022-11-01T13:28:43.641Z,1.50
2022-11-01T13:31:24.626Z,1.57
2022-11-01T13:33:59.341Z,1.10
2022-11-01T13:36:33.317Z,1.60
2022-11-01T13:39:07.562Z,1.83
2022-11-01T13:41:42.061Z,1.53
2022-11-01T13:44:14.690Z,1.70
2022-11-01T13:47:00.886Z,1.40
2022-11-01T13:49:58.701Z,2.00
2022-11-01T13:52:29.929Z,2.00
2022-11-01T13:55:06.598Z,1.47
2022-11-01T13:57:37.488Z,2.30
2022-11-01T14:00:09.345Z,1.40
2022-11-01T14:02:59.202Z,1.83
2022-11-01T14:05:38.431Z,2.00
2022-11-01T14:08:15.825Z,1.87
2022-11-01T14:10:49.429Z,1.00
2022-11-01T14:13:29.776Z,1.50
2022-11-01T14:16:21.411Z,1.43
2022-11-01T14:19:22.555Z,1.60
2022-11-01T14:21:54.404Z,1.33
2022-11-01T14:24:33.831Z,1.40
2022-11-01T14:27:19.930Z,1.23
2022-11-01T14:29:53.537Z,1.47
2022-11-01T14:32:24.559Z,1.33
2022-11-01T14:35:10.260Z,1.43
2022-11-01T14:37:42.303Z,1.30
2022-11-01T14:40:32.393Z,1.03
2022-11-01T14:43:05.206Z,1.40
2022-11-01T14:45:37.855Z,1.33
2022-11-01T14:48:13.185Z,1.63
2022-11-01T14:50:51.507Z,1.93
2022-11-01T14:53:25.621Z,1.20
2022-11-01T14:56:06.850Z,1.33
2022-11-01T14:58:35.165Z,1.53
2022-11-01T15:01:11.948Z,1.20
2022-11-01T15:03:40.100Z,1.90
2022-11-01T15:06:21.937Z,1.10
2022-11-01T15:08:50.040Z,2.17
2022-11-01T15:11:18.601Z,2.00
2022-11-01T15:13:47.443Z,1.40
2022-11-01T15:16:21.554Z,1.93
2022-11-01T15:18:54.005Z,1.60
2022-11-01T15:21:28.774Z,2.10
2022-11-01T15:24:00.021Z,1.83
2022-11-01T15:26:32.227Z,2.57
2022-11-01T15:29:02.231Z,1.80
2022-11-01T15:31:34.294Z,1.53
2022-11-01T15:34:04.726Z,1.70
2022-11-01T15:36:36.578Z,7.43
2022-11-01T15:39:17.181Z,8.70
2022-11-01T15:41:45.787Z,5.00
2022-11-01T15:44:20.842Z,8.83
2022-11-01T15:46:51.558Z,2.77
2022-11-01T15:49:21.878Z,2.37
2022-11-01T15:51:54.040Z,2.57
2022-11-01T15:54:34.905Z,2.30
2022-11-01T15:57:09.441Z,3.20
2022-11-01T15:59:43.687Z,2.73
2022-11-01T16:02:19.156Z,2.10
2022-11-01T16:04:48.220Z,3.10
2022-11-01T16:07:19.463Z,3.47
2022-11-01T16:09:50.327Z,3.20
2022-11-01T16:12:20.987Z,1.90
2022-11-01T16:14:54.040Z,2.10
2022-11-01T16:17:33.541Z,3.07
2022-11-01T16:20:04.773Z,2.87
2022-11-01T16:22:39.067Z,2.40
2022-11-01T16:25:22.636Z,2.47
2022-11-01T16:28:03.767Z,1.83
2022-11-01T16:30:37.791Z,2.20
2022-11-01T16:33:25.513Z,2.20
2022-11-01T16:35:56.191Z,2.33
2022-11-01T16:38:29.905Z,3.40
2022-11-01T16:40:59.982Z,2.80
2022-11-01T16:43:31.159Z,2.93
2022-11-01T16:46:01.171Z,2.97
2022-11-01T16:48:32.258Z,2.20
2022-11-01T16:51:01.808Z,2.00
2022-11-01T16:53:31.382Z,2.20
2022-11-01T16:56:34.305Z,1.50
2022-11-01T16:58:59.114Z,1.80
2022-11-01T17:01:35.127Z,1.07
2022-11-01T17:04:05.823Z,1.60
2022-11-01T17:06:38.606Z,1.43
2022-11-01T17:09:12.749Z,0.97
2022-11-01T17:11:41.707Z,1.10
2022-11-01T17:14:12.180Z,1.90
2022-11-01T17:16:40.946Z,1.23
2022-11-01T17:19:18.703Z,1.23
2022-11-01T17:21:47.094Z,0.93
2022-11-01T17:24:19.408Z,1.27
2022-11-01T17:26:48.433Z,1.43
2022-11-01T17:29:16.557Z,1.73
2022-11-01T17:31:45.289Z,1.70
2022-11-01T17:34:14.757Z,1.37
2022-11-01T17:36:47.479Z,1.47
2022-11-01T17:39:15.668Z,1.33
2022-11-01T17:41:43.797Z,1.70
2022-11-01T17:44:12.708Z,1.70
2022-11-01T17:46:40.929Z,1.37
2022-11-01T17:49:10.159Z,1.13
2022-11-01T17:51:39.550Z,1.20
2022-11-01T17:54:07.622Z,1.40
2022-11-01T17:56:35.678Z,1.60
2022-11-01T17:59:03.827Z,1.20
2022-11-01T18:01:32.401Z,1.50
2022-11-01T18:04:00.581Z,1.80
2022-11-01T18:06:28.665Z,1.57
2022-11-01T18:08:58.047Z,1.90
2022-11-01T18:11:39.456Z,1.50
2022-11-01T18:14:14.745Z,1.70
2022-11-01T18:16:48.584Z,1.40
2022-11-01T18:19:34.699Z,1.47
2022-11-01T18:22:10.847Z,1.23
2022-11-01T18:24:43.922Z,1.23
2022-11-01T18:27:13.683Z,1.03
2022-11-01T18:29:50.056Z,1.20
2022-11-01T18:32:24.895Z,1.33
2022-11-01T18:34:58.231Z,1.60
2022-11-01T18:37:31.955Z,0.83
2022-11-01T18:40:11.442Z,1.40
2022-11-01T18:42:39.744Z,1.07
2022-11-01T18:45:19.592Z,0.70
2022-11-01T18:47:51.346Z,1.00
2022-11-01T18:50:26.055Z,0.80
2022-11-01T18:53:02.039Z,0.80
2022-11-01T18:55:33.571Z,0.80
2022-11-01T18:58:13.944Z,0.47
2022-11-01T19:00:42.902Z,0.63
2022-11-01T19:03:21.804Z,1.00
2022-11-01T19:06:11.314Z,1.17
2022-11-01T19:08:40.124Z,1.33
2022-11-01T19:11:12.946Z,0.80
2022-11-01T19:13:41.608Z,0.80
2022-11-01T19:16:13.646Z,1.33
2022-11-01T19:18:43.829Z,0.70
2022-11-01T19:21:16.113Z,1.10
2022-11-01T19:23:46.521Z,1.10
2022-11-01T19:26:22.160Z,2.30
2022-11-01T19:28:52.636Z,1.07
2022-11-01T19:31:27.268Z,2.63
2022-11-01T19:33:58.031Z,1.30
2022-11-01T19:36:36.155Z,1.00
2022-11-01T19:39:20.830Z,1.10
2022-11-01T19:41:50.785Z,1.00
2022-11-01T19:44:21.405Z,0.90
2022-11-01T19:46:52.246Z,3.30
2022-11-01T19:49:24.689Z,1.90
2022-11-01T19:52:07.045Z,1.10
2022-11-01T19:54:37.431Z,1.20
2022-11-01T19:57:16.315Z,0.97
2022-11-01T19:59:44.421Z,1.20
2022-11-01T20:02:17.975Z,1.60
2022-11-01T20:04:46.766Z,1.30
2022-11-01T20:07:17.328Z,1.53
2022-11-01T20:09:47.154Z,1.53
2022-11-01T20:12:21.897Z,1.93
2022-11-01T20:14:50.667Z,2.00
2022-11-01T20:17:21.049Z,2.00
2022-11-01T20:19:49.922Z,1.90
2022-11-01T20:22:17.999Z,1.17
2022-11-01T20:24:47.183Z,1.53
2022-11-01T20:27:18.171Z,1.40
2022-11-01T20:29:46.339Z,1.20
2022-11-01T20:32:14.394Z,2.40
2022-11-01T20:34:46.452Z,2.53
2022-11-01T20:37:28.120Z,1.90
2022-11-01T20:39:57.223Z,1.63
2022-11-01T20:42:26.650Z,1.43
2022-11-01T20:44:54.718Z,0.90
2022-11-01T20:47:23.375Z,1.30
2022-11-01T20:49:51.489Z,1.47
2022-11-01T20:52:38.731Z,1.13
2022-11-01T20:55:09.875Z,2.20
2022-11-01T20:57:41.151Z,1.10
2022-11-01T21:00:13.000Z,0.93
2022-11-01T21:02:43.207Z,1.07
2022-11-01T21:05:23.439Z,1.30
2022-11-01T21:07:54.976Z,1.27
2022-11-01T21:10:30.270Z,1.73
2022-11-01T21:13:01.385Z,1.73
2022-11-01T21:15:35.007Z,1.93
2022-11-01T21:18:42.186Z,1.73
2022-11-01T21:21:28.213Z,1.50
2022-11-01T21:23:57.331Z,1.60
2022-11-01T21:26:30.769Z,0.90
2022-11-01T21:29:04.696Z,0.97
2022-11-01T21:31:34.084Z,1.30
2022-11-01T21:34:17.651Z,1.23
2022-11-01T21:36:48.923Z,1.50
2022-11-01T21:39:20.861Z,0.90
2022-11-01T21:41:50.720Z,0.87
2022-11-01T21:44:26.111Z,1.20
2022-11-01T21:46:56.039Z,0.97
2022-11-01T21:49:29.293Z,0.80
2022-11-01T21:52:00.467Z,0.83
2022-11-01T21:54:29.979Z,1.20
2022-11-01T21:56:58.837Z,1.13
2022-11-01T21:59:29.022Z,0.70
2022-11-01T22:02:01.271Z,1.07
2022-11-01T22:04:30.967Z,1.30
2022-11-01T22:06:59.877Z,0.90
2022-11-01T22:09:28.389Z,1.23
2022-11-01T22:11:56.632Z,0.90
2022-11-01T22:14:25.004Z,0.90
2022-11-01T22:16:54.527Z,1.00
2022-11-01T22:19:22.543Z,0.60
2022-11-01T22:21:50.575Z,0.90
2022-11-01T22:24:18.664Z,1.10
2022-11-01T22:26:46.699Z,0.90
2022-11-01T22:29:14.720Z,0.70
2022-11-01T22:31:42.863Z,0.97
2022-11-01T22:34:12.305Z,0.87
2022-11-01T22:36:42.986Z,0.87
2022-11-01T22:39:19.158Z,0.53
2022-11-01T22:41:47.445Z,0.70
2022-11-01T22:44:17.653Z,0.80
2022-11-01T22:46:52.376Z,0.77
2022-11-01T22:49:26.941Z,0.67
2022-11-01T22:51:57.224Z,0.70
2022-11-01T22:54:33.870Z,0.97
2022-11-01T22:57:07.587Z,0.83
2022-11-01T22:59:39.406Z,0.60
2022-11-01T23:02:27.621Z,0.53
2022-11-01T23:05:03.674Z,0.70
2022-11-01T23:07:35.040Z,0.90
2022-11-01T23:10:07.150Z,0.50
2022-11-01T23:12:55.044Z,0.77
2022-11-01T23:15:27.627Z,0.93
2022-11-01T23:18:01.580Z,0.50
2022-11-01T23:20:31.001Z,0.53
2022-11-01T23:23:00.831Z,0.80
2022-11-01T23:25:30.229Z,1.43
2022-11-01T23:27:58.350Z,0.70
2022-11-01T23:30:26.386Z,0.60
2022-11-01T23:32:54.635Z,0.83
2022-11-01T23:35:23.755Z,0.47
2022-11-01T23:37:54.567Z,0.70
2022-11-01T23:40:23.136Z,0.90
2022-11-01T23:42:54.363Z,0.60
2022-11-01T23:45:28.218Z,0.90
2022-11-01T23:47:56.701Z,0.83
2022-11-01T23:50:30.277Z,0.80
2022-11-01T23:53:01.577Z,0.70
2022-11-01T23:55:34.809Z,0.70
2022-11-01T23:58:06.094Z,0.63
